createdAt,value
2018-12-15T00:00:43.817Z,1.50
2018-12-15T00:01:46.313Z,1.50
2018-12-15T00:02:48.845Z,1.40
2018-12-15T00:03:51.349Z,1.40
2018-12-15T00:04:53.846Z,1.40
2018-12-15T00:05:56.340Z,1.50
2018-12-15T00:06:58.885Z,1.40
2018-12-15T00:08:01.405Z,1.40
2018-12-15T00:09:05.112Z,1.40
2018-12-15T00:10:07.721Z,1.50
2018-12-15T00:11:10.257Z,1.50
2018-12-15T00:12:12.759Z,1.60
2018-12-15T00:13:15.265Z,1.60
2018-12-15T00:14:17.770Z,1.60
2018-12-15T00:15:20.288Z,1.60
2018-12-15T00:16:22.822Z,1.60
2018-12-15T00:17:25.336Z,1.60
2018-12-15T00:18:28.269Z,1.60
2018-12-15T00:19:30.826Z,1.50
2018-12-15T00:20:33.330Z,1.60
2018-12-15T00:21:35.837Z,1.60
2018-12-15T00:22:38.385Z,1.70
2018-12-15T00:23:40.889Z,1.60
2018-12-15T00:24:43.441Z,1.50
2018-12-15T00:25:45.946Z,1.50
2018-12-15T00:26:48.461Z,1.40
2018-12-15T00:27:50.962Z,1.40
2018-12-15T00:28:53.505Z,1.40
2018-12-15T00:29:56.014Z,1.40
2018-12-15T00:30:58.521Z,1.40
2018-12-15T00:32:01.184Z,1.40
2018-12-15T00:33:03.726Z,1.40
2018-12-15T00:34:06.289Z,1.40
2018-12-15T00:35:08.824Z,1.40
2018-12-15T00:36:11.326Z,1.40
2018-12-15T00:37:13.833Z,1.50
2018-12-15T00:38:16.377Z,1.50
2018-12-15T00:39:18.885Z,1.50
2018-12-15T00:40:21.392Z,1.50
2018-12-15T00:41:23.910Z,1.50
2018-12-15T00:42:33.021Z,1.40
2018-12-15T00:43:35.570Z,1.50
2018-12-15T00:44:38.077Z,1.40
2018-12-15T00:45:40.610Z,1.40
2018-12-15T00:46:43.165Z,1.40
2018-12-15T00:47:45.715Z,1.40
2018-12-15T00:48:48.258Z,1.40
2018-12-15T00:49:50.757Z,1.50
2018-12-15T00:50:53.302Z,1.40
2018-12-15T00:51:55.810Z,1.50
2018-12-15T00:52:58.356Z,1.50
2018-12-15T00:54:00.913Z,1.50
2018-12-15T00:55:03.620Z,1.40
2018-12-15T00:56:06.124Z,1.50
2018-12-15T00:57:08.629Z,1.50
2018-12-15T00:58:11.169Z,1.40
2018-12-15T00:59:13.708Z,1.40
2018-12-15T01:00:16.222Z,1.50
2018-12-15T01:01:18.726Z,1.50
2018-12-15T01:02:21.238Z,1.50
2018-12-15T01:03:23.780Z,1.50
2018-12-15T01:04:26.292Z,1.50
2018-12-15T01:05:28.839Z,1.50
2018-12-15T01:06:31.345Z,1.50
2018-12-15T01:07:35.195Z,1.50
2018-12-15T01:08:37.941Z,1.50
2018-12-15T01:09:40.485Z,1.40
2018-12-15T01:10:43.037Z,1.50
2018-12-15T01:11:45.603Z,1.50
2018-12-15T01:12:48.109Z,1.50
2018-12-15T01:13:50.638Z,1.60
2018-12-15T01:14:53.138Z,1.60
2018-12-15T01:15:55.678Z,1.60
2018-12-15T01:16:58.186Z,1.60
2018-12-15T01:18:00.706Z,1.50
2018-12-15T01:19:03.253Z,1.50
2018-12-15T01:20:05.860Z,1.50
2018-12-15T01:21:08.379Z,1.50
2018-12-15T01:22:10.886Z,1.60
2018-12-15T01:23:13.390Z,1.60
2018-12-15T01:24:15.936Z,1.50
2018-12-15T01:25:18.442Z,1.40
2018-12-15T01:26:21.001Z,1.50
2018-12-15T01:27:23.508Z,1.50
2018-12-15T01:28:26.057Z,1.50
2018-12-15T01:29:28.572Z,1.50
2018-12-15T01:30:31.069Z,1.50
2018-12-15T01:31:33.578Z,1.60
2018-12-15T01:32:36.133Z,1.60
2018-12-15T01:33:38.637Z,1.60
2018-12-15T01:34:41.181Z,1.60
2018-12-15T01:35:43.686Z,1.60
2018-12-15T01:36:46.192Z,1.60
2018-12-15T01:37:48.697Z,1.50
2018-12-15T01:38:51.210Z,1.60
2018-12-15T01:39:53.750Z,1.60
2018-12-15T01:40:56.256Z,1.60
2018-12-15T01:41:58.775Z,1.60
2018-12-15T01:43:01.277Z,1.60
2018-12-15T01:44:03.841Z,1.60
2018-12-15T01:45:06.482Z,1.60
2018-12-15T01:46:08.999Z,1.50
2018-12-15T01:47:11.505Z,1.50
2018-12-15T01:48:14.107Z,1.40
2018-12-15T01:49:16.618Z,1.40
2018-12-15T01:51:28.126Z,1.40
2018-12-15T01:52:30.746Z,1.40
2018-12-15T01:53:33.289Z,1.40
2018-12-15T01:54:35.822Z,1.40
2018-12-15T01:55:38.334Z,1.40
2018-12-15T01:56:40.842Z,1.50
2018-12-15T01:57:43.377Z,1.50
2018-12-15T01:58:45.893Z,1.50
2018-12-15T01:59:48.405Z,1.50
2018-12-15T02:00:50.921Z,1.50
2018-12-15T02:01:58.492Z,1.50
2018-12-15T02:03:00.996Z,1.50
2018-12-15T02:04:03.500Z,1.60
2018-12-15T02:05:06.054Z,1.60
2018-12-15T02:06:08.562Z,1.60
2018-12-15T02:07:11.101Z,1.60
2018-12-15T02:08:13.605Z,1.60
2018-12-15T02:09:16.168Z,1.60
2018-12-15T02:10:18.705Z,1.60
2018-12-15T02:11:21.205Z,1.60
2018-12-15T02:12:23.710Z,1.60
2018-12-15T02:13:26.226Z,1.50
2018-12-15T02:14:28.742Z,1.60
2018-12-15T02:15:31.281Z,1.60
2018-12-15T02:16:33.837Z,1.50
2018-12-15T02:17:36.338Z,1.50
2018-12-15T02:18:38.845Z,1.50
2018-12-15T02:19:41.399Z,1.40
2018-12-15T02:20:43.901Z,1.40
2018-12-15T02:21:46.407Z,1.40
2018-12-15T02:22:48.937Z,1.40
2018-12-15T02:23:51.444Z,1.40
2018-12-15T02:24:54.053Z,1.40
2018-12-15T02:25:56.561Z,1.50
2018-12-15T02:26:59.060Z,1.50
2018-12-15T02:28:01.570Z,1.50
2018-12-15T02:29:04.175Z,1.60
2018-12-15T02:30:07.330Z,1.70
2018-12-15T02:31:09.886Z,1.60
2018-12-15T02:32:12.402Z,1.60
2018-12-15T02:33:14.961Z,1.60
2018-12-15T02:34:17.471Z,1.50
2018-12-15T02:35:20.025Z,1.50
2018-12-15T02:36:22.544Z,1.50
2018-12-15T02:37:25.059Z,1.40
2018-12-15T02:38:27.629Z,1.50
2018-12-15T02:39:30.177Z,1.50
2018-12-15T02:40:32.685Z,1.50
2018-12-15T02:41:35.280Z,1.50
2018-12-15T02:42:37.781Z,1.50
2018-12-15T02:43:40.288Z,1.60
2018-12-15T02:44:42.798Z,1.60
2018-12-15T02:45:45.342Z,1.70
2018-12-15T02:46:47.885Z,1.70
2018-12-15T02:47:50.382Z,1.70
2018-12-15T02:48:52.895Z,1.70
2018-12-15T02:49:55.418Z,1.60
2018-12-15T02:50:57.956Z,1.50
2018-12-15T02:52:00.459Z,1.60
2018-12-15T02:53:02.975Z,1.50
2018-12-15T02:54:05.493Z,1.50
2018-12-15T02:55:08.006Z,1.50
2018-12-15T02:56:10.572Z,1.50
2018-12-15T02:57:13.104Z,1.50
2018-12-15T02:58:15.612Z,1.50
2018-12-15T02:59:18.135Z,1.60
2018-12-15T03:00:20.694Z,1.60
2018-12-15T03:01:23.237Z,1.60
2018-12-15T03:02:25.742Z,1.70
2018-12-15T03:03:28.249Z,1.60
2018-12-15T03:04:30.794Z,1.60
2018-12-15T03:05:33.305Z,1.60
2018-12-15T03:06:35.826Z,1.50
2018-12-15T03:07:38.332Z,1.50
2018-12-15T03:08:40.886Z,1.50
2018-12-15T03:09:43.406Z,1.50
2018-12-15T03:10:45.917Z,1.50
2018-12-15T03:11:48.446Z,1.50
2018-12-15T03:12:50.962Z,1.60
2018-12-15T03:13:53.496Z,1.50
2018-12-15T03:14:55.998Z,1.60
2018-12-15T03:15:58.509Z,1.60
2018-12-15T03:17:04.651Z,1.70
2018-12-15T03:18:07.149Z,1.60
2018-12-15T03:19:11.014Z,1.60
2018-12-15T03:20:13.598Z,1.50
2018-12-15T03:21:16.355Z,1.60
2018-12-15T03:22:18.867Z,1.50
2018-12-15T03:23:21.375Z,1.50
2018-12-15T03:24:23.909Z,1.40
2018-12-15T03:25:26.462Z,1.40
2018-12-15T03:26:28.974Z,1.50
2018-12-15T03:27:31.521Z,1.50
2018-12-15T03:28:34.025Z,1.40
2018-12-15T03:29:36.525Z,1.40
2018-12-15T03:30:39.026Z,1.40
2018-12-15T03:31:41.534Z,1.50
2018-12-15T03:32:44.075Z,1.50
2018-12-15T03:33:46.633Z,1.50
2018-12-15T03:34:49.142Z,1.40
2018-12-15T03:35:51.640Z,1.50
2018-12-15T03:36:54.145Z,1.60
2018-12-15T03:37:56.650Z,1.60
2018-12-15T03:38:59.189Z,1.60
2018-12-15T03:40:01.732Z,1.60
2018-12-15T03:41:04.280Z,1.60
2018-12-15T03:42:06.790Z,1.60
2018-12-15T03:43:09.365Z,1.50
2018-12-15T03:44:11.870Z,1.60
2018-12-15T03:45:14.418Z,1.60
2018-12-15T03:46:16.922Z,1.60
2018-12-15T03:47:19.426Z,1.50
2018-12-15T03:48:21.925Z,1.50
2018-12-15T03:49:24.437Z,1.50
2018-12-15T03:50:26.996Z,1.40
2018-12-15T03:51:29.503Z,1.50
2018-12-15T03:53:40.979Z,1.50
2018-12-15T03:54:43.494Z,1.50
2018-12-15T03:55:46.024Z,1.50
2018-12-15T03:56:48.575Z,1.50
2018-12-15T03:57:51.114Z,1.50
2018-12-15T03:58:53.713Z,1.60
2018-12-15T03:59:56.233Z,1.60
2018-12-15T04:00:58.776Z,1.50
2018-12-15T04:02:01.534Z,1.50
2018-12-15T04:03:04.106Z,1.50
2018-12-15T04:04:06.635Z,1.40
2018-12-15T04:05:09.281Z,1.40
2018-12-15T04:06:11.788Z,1.40
2018-12-15T04:07:14.289Z,1.40
2018-12-15T04:08:16.797Z,1.40
2018-12-15T04:09:19.345Z,1.40
2018-12-15T04:10:21.857Z,1.50
2018-12-15T04:11:24.409Z,1.50
2018-12-15T04:12:26.922Z,1.60
2018-12-15T04:13:29.425Z,1.60
2018-12-15T04:14:31.978Z,1.60
2018-12-15T04:15:34.535Z,1.60
2018-12-15T04:16:37.059Z,1.60
2018-12-15T04:17:39.562Z,1.60
2018-12-15T04:18:42.070Z,1.50
2018-12-15T04:19:44.615Z,1.50
2018-12-15T04:20:47.125Z,1.40
2018-12-15T04:21:49.630Z,1.50
2018-12-15T04:22:52.169Z,1.40
2018-12-15T04:23:54.693Z,1.40
2018-12-15T04:24:57.234Z,1.30
2018-12-15T04:25:59.797Z,1.30
2018-12-15T04:27:02.297Z,1.30
2018-12-15T04:28:04.808Z,1.30
2018-12-15T04:29:09.318Z,1.40
2018-12-15T04:30:11.816Z,1.40
2018-12-15T04:31:14.363Z,1.40
2018-12-15T04:32:16.917Z,1.40
2018-12-15T04:33:19.433Z,1.40
2018-12-15T04:34:21.971Z,1.40
2018-12-15T04:35:24.487Z,1.30
2018-12-15T04:36:27.001Z,1.40
2018-12-15T04:37:29.562Z,1.40
2018-12-15T04:38:32.082Z,1.40
2018-12-15T04:39:34.590Z,1.40
2018-12-15T04:40:37.441Z,1.30
2018-12-15T04:41:39.946Z,1.40
2018-12-15T04:42:42.590Z,1.30
2018-12-15T04:43:45.089Z,1.40
2018-12-15T04:44:47.598Z,1.40
2018-12-15T04:45:50.101Z,1.50
2018-12-15T04:46:52.771Z,1.50
2018-12-15T04:47:55.317Z,1.50
2018-12-15T04:48:57.822Z,1.50
2018-12-15T04:50:00.336Z,1.40
2018-12-15T04:51:02.860Z,1.40
2018-12-15T04:52:05.365Z,1.40
2018-12-15T04:53:07.864Z,1.40
2018-12-15T04:54:10.364Z,1.40
2018-12-15T04:55:12.921Z,1.40
2018-12-15T04:56:15.429Z,1.50
2018-12-15T04:57:17.938Z,1.50
2018-12-15T04:58:20.451Z,1.40
2018-12-15T04:59:22.983Z,1.40
2018-12-15T05:00:25.537Z,1.50
2018-12-15T05:01:28.090Z,1.40
2018-12-15T05:03:39.441Z,1.50
2018-12-15T05:04:41.950Z,1.50
2018-12-15T05:05:44.488Z,1.40
2018-12-15T05:06:46.993Z,1.40
2018-12-15T05:07:49.529Z,1.40
2018-12-15T05:08:52.034Z,1.30
2018-12-15T05:09:54.585Z,1.40
2018-12-15T05:10:57.093Z,1.50
2018-12-15T05:11:59.591Z,1.50
2018-12-15T05:13:02.101Z,1.50
2018-12-15T05:14:04.632Z,1.50
2018-12-15T05:15:07.474Z,1.60
2018-12-15T05:16:09.982Z,1.60
2018-12-15T05:17:12.517Z,1.60
2018-12-15T05:18:18.196Z,1.50
2018-12-15T05:19:19.558Z,1.50
2018-12-15T05:20:22.097Z,1.50
2018-12-15T05:21:24.639Z,1.50
2018-12-15T05:22:27.148Z,1.50
2018-12-15T05:23:29.657Z,1.50
2018-12-15T05:24:32.234Z,1.40
2018-12-15T05:25:34.789Z,1.40
2018-12-15T05:26:37.306Z,1.40
2018-12-15T05:27:39.811Z,1.40
2018-12-15T05:28:42.373Z,1.30
2018-12-15T05:29:44.873Z,1.30
2018-12-15T05:30:47.418Z,1.30
2018-12-15T05:31:49.925Z,1.30
2018-12-15T05:32:52.424Z,1.30
2018-12-15T05:33:54.934Z,1.30
2018-12-15T05:34:57.447Z,1.30
2018-12-15T05:35:59.997Z,1.40
2018-12-15T05:37:02.513Z,1.40
2018-12-15T05:38:05.016Z,1.40
2018-12-15T05:39:07.559Z,1.40
2018-12-15T05:40:10.146Z,1.40
2018-12-15T05:41:12.654Z,1.50
2018-12-15T05:42:15.154Z,1.40
2018-12-15T05:43:17.652Z,1.50
2018-12-15T05:44:20.218Z,1.50
2018-12-15T05:45:22.752Z,1.50
2018-12-15T05:46:25.276Z,1.40
2018-12-15T05:47:27.775Z,1.50
2018-12-15T05:48:30.286Z,1.40
2018-12-15T05:49:32.941Z,1.40
2018-12-15T05:50:35.468Z,1.40
2018-12-15T05:51:38.016Z,1.40
2018-12-15T05:52:40.521Z,1.40
2018-12-15T05:53:43.033Z,1.40
2018-12-15T05:54:45.543Z,1.40
2018-12-15T05:55:48.081Z,1.40
2018-12-15T05:56:50.586Z,1.40
2018-12-15T05:57:53.129Z,1.40
2018-12-15T05:58:55.669Z,1.40
2018-12-15T05:59:58.168Z,1.50
2018-12-15T06:01:00.717Z,1.50
2018-12-15T06:02:04.829Z,1.60
2018-12-15T06:03:07.357Z,1.60
2018-12-15T06:04:09.865Z,1.60
2018-12-15T06:05:12.578Z,1.60
2018-12-15T06:06:15.101Z,1.70
2018-12-15T06:07:17.605Z,1.70
2018-12-15T06:08:20.241Z,1.70
2018-12-15T06:09:22.746Z,1.70
2018-12-15T06:10:25.253Z,1.80
2018-12-15T06:11:27.770Z,1.80
2018-12-15T06:12:30.277Z,1.70
2018-12-15T06:13:32.809Z,1.70
2018-12-15T06:14:35.325Z,1.80
2018-12-15T06:15:37.869Z,1.70
2018-12-15T06:16:40.382Z,1.70
2018-12-15T06:17:42.889Z,1.70
2018-12-15T06:18:45.438Z,1.70
2018-12-15T06:19:47.982Z,1.60
2018-12-15T06:20:50.487Z,1.60
2018-12-15T06:21:53.025Z,1.60
2018-12-15T06:22:55.541Z,1.50
2018-12-15T06:23:58.064Z,1.50
2018-12-15T06:25:00.565Z,1.40
2018-12-15T06:26:03.148Z,1.40
2018-12-15T06:27:05.701Z,1.50
2018-12-15T06:28:08.241Z,1.40
2018-12-15T06:29:10.745Z,1.50
2018-12-15T06:30:13.300Z,1.50
2018-12-15T06:31:15.938Z,1.50
2018-12-15T06:32:18.447Z,1.50
2018-12-15T06:33:20.961Z,1.60
2018-12-15T06:34:23.464Z,1.70
2018-12-15T06:35:25.970Z,1.60
2018-12-15T06:36:28.511Z,1.50
2018-12-15T06:37:31.022Z,1.60
2018-12-15T06:38:33.537Z,1.70
2018-12-15T06:39:36.042Z,1.70
2018-12-15T06:40:38.574Z,1.60
2018-12-15T06:41:41.097Z,1.60
2018-12-15T06:42:43.600Z,1.60
2018-12-15T06:43:46.190Z,1.60
2018-12-15T06:44:48.703Z,1.60
2018-12-15T06:45:51.261Z,1.60
2018-12-15T06:46:53.785Z,1.60
2018-12-15T06:47:56.292Z,1.60
2018-12-15T06:48:58.836Z,1.60
2018-12-15T06:50:01.341Z,1.60
2018-12-15T06:51:03.875Z,1.60
2018-12-15T06:52:06.421Z,1.60
2018-12-15T06:53:08.929Z,1.60
2018-12-15T06:54:11.441Z,1.60
2018-12-15T06:55:13.946Z,1.60
2018-12-15T06:56:16.487Z,1.70
2018-12-15T06:57:18.988Z,1.60
2018-12-15T06:58:21.519Z,1.70
2018-12-15T06:59:24.059Z,1.70
2018-12-15T07:00:26.570Z,1.70
2018-12-15T07:01:29.074Z,1.70
2018-12-15T07:02:31.593Z,1.60
2018-12-15T07:03:34.130Z,1.60
2018-12-15T07:04:36.646Z,1.60
2018-12-15T07:05:39.164Z,1.70
2018-12-15T07:06:42.127Z,1.70
2018-12-15T07:07:44.705Z,1.60
2018-12-15T07:08:47.245Z,1.60
2018-12-15T07:09:49.781Z,1.50
2018-12-15T07:10:52.289Z,1.60
2018-12-15T07:11:54.793Z,1.60
2018-12-15T07:12:57.305Z,1.60
2018-12-15T07:13:59.849Z,1.60
2018-12-15T07:15:02.352Z,1.60
2018-12-15T07:16:04.938Z,1.60
2018-12-15T07:17:07.501Z,1.50
2018-12-15T07:18:10.017Z,1.50
2018-12-15T07:19:12.518Z,1.50
2018-12-15T07:20:15.018Z,1.50
2018-12-15T07:21:17.569Z,1.40
2018-12-15T07:22:20.077Z,1.50
2018-12-15T07:23:22.590Z,1.50
2018-12-15T07:24:25.097Z,1.50
2018-12-15T07:25:27.603Z,1.60
2018-12-15T07:26:30.142Z,1.60
2018-12-15T07:27:32.646Z,1.60
2018-12-15T07:28:35.145Z,1.60
2018-12-15T07:29:37.645Z,1.60
2018-12-15T07:30:40.296Z,1.70
2018-12-15T07:31:42.872Z,1.70
2018-12-15T07:32:45.390Z,1.70
2018-12-15T07:33:47.934Z,1.70
2018-12-15T07:34:50.445Z,1.70
2018-12-15T07:35:52.950Z,1.70
2018-12-15T07:36:55.501Z,1.60
2018-12-15T07:37:58.065Z,1.60
2018-12-15T07:39:00.582Z,1.60
2018-12-15T07:40:03.346Z,1.70
2018-12-15T07:41:05.850Z,1.70
2018-12-15T07:42:08.389Z,1.70
2018-12-15T07:43:10.893Z,1.70
2018-12-15T07:44:13.448Z,1.60
2018-12-15T07:45:15.961Z,1.60
2018-12-15T07:46:18.562Z,1.50
2018-12-15T07:47:21.165Z,1.50
2018-12-15T07:48:23.670Z,1.50
2018-12-15T07:49:26.238Z,1.50
2018-12-15T07:50:28.749Z,1.50
2018-12-15T07:51:31.306Z,1.60
2018-12-15T07:52:33.854Z,1.70
2018-12-15T07:53:36.357Z,1.70
2018-12-15T07:54:38.862Z,1.60
2018-12-15T07:55:41.380Z,1.60
2018-12-15T07:56:43.921Z,1.70
2018-12-15T07:57:46.432Z,1.80
2018-12-15T07:58:49.060Z,1.80
2018-12-15T07:59:51.565Z,1.80
2018-12-15T08:00:54.098Z,1.80
2018-12-15T08:01:56.645Z,1.80
2018-12-15T08:02:59.157Z,1.80
2018-12-15T08:04:01.681Z,1.80
2018-12-15T08:05:05.196Z,1.80
2018-12-15T08:06:07.748Z,1.80
2018-12-15T08:07:10.286Z,1.80
2018-12-15T08:08:12.793Z,1.70
2018-12-15T08:09:15.314Z,1.60
2018-12-15T08:10:19.785Z,1.70
2018-12-15T08:11:27.945Z,1.70
2018-12-15T08:12:36.073Z,1.60
2018-12-15T08:13:40.547Z,1.60
2018-12-15T08:14:43.049Z,1.60
2018-12-15T08:15:45.682Z,1.70
2018-12-15T08:16:48.221Z,1.70
2018-12-15T08:17:50.730Z,1.70
2018-12-15T08:18:57.999Z,1.70
2018-12-15T08:19:57.758Z,1.70
2018-12-15T08:21:00.293Z,1.70
2018-12-15T08:22:02.830Z,1.60
2018-12-15T08:23:05.371Z,1.50
2018-12-15T08:24:07.883Z,1.50
2018-12-15T08:25:10.429Z,1.40
2018-12-15T08:26:12.971Z,1.40
2018-12-15T08:27:15.477Z,1.40
2018-12-15T08:28:17.975Z,1.40
2018-12-15T08:29:20.517Z,1.50
2018-12-15T08:30:23.066Z,1.40
2018-12-15T08:31:25.674Z,1.40
2018-12-15T08:32:28.181Z,1.30
2018-12-15T08:33:30.679Z,1.40
2018-12-15T08:34:33.186Z,1.30
2018-12-15T08:35:35.699Z,1.30
2018-12-15T08:36:38.258Z,1.30
2018-12-15T08:37:40.762Z,1.40
2018-12-15T08:38:43.313Z,1.40
2018-12-15T08:39:45.824Z,1.30
2018-12-15T08:40:48.373Z,1.40
2018-12-15T08:41:50.909Z,1.40
2018-12-15T08:42:53.413Z,1.40
2018-12-15T08:43:55.913Z,1.40
2018-12-15T08:44:58.415Z,1.40
2018-12-15T08:46:01.723Z,1.40
2018-12-15T08:47:04.254Z,1.50
2018-12-15T08:48:06.762Z,1.50
2018-12-15T08:49:09.298Z,1.40
2018-12-15T08:50:11.850Z,1.40
2018-12-15T08:51:14.502Z,1.40
2018-12-15T08:52:17.054Z,1.40
2018-12-15T08:53:19.593Z,1.40
2018-12-15T08:54:22.101Z,1.40
2018-12-15T08:55:24.624Z,1.30
2018-12-15T08:56:27.157Z,1.30
2018-12-15T08:57:29.690Z,1.40
2018-12-15T08:58:32.201Z,1.30
2018-12-15T08:59:34.701Z,1.30
2018-12-15T09:00:37.245Z,1.30
2018-12-15T09:01:39.801Z,1.30
2018-12-15T09:02:42.314Z,1.30
2018-12-15T09:03:44.822Z,1.30
2018-12-15T09:04:47.339Z,1.20
2018-12-15T09:05:49.878Z,1.20
2018-12-15T09:06:52.390Z,1.30
2018-12-15T09:07:54.912Z,1.30
2018-12-15T09:08:57.425Z,1.20
2018-12-15T09:09:59.977Z,1.20
2018-12-15T09:11:02.537Z,1.20
2018-12-15T09:12:05.049Z,1.20
2018-12-15T09:13:07.556Z,1.30
2018-12-15T09:14:10.141Z,1.20
2018-12-15T09:15:12.727Z,1.20
2018-12-15T09:16:15.238Z,1.30
2018-12-15T09:17:17.777Z,1.20
2018-12-15T09:18:20.394Z,1.30
2018-12-15T09:19:22.933Z,1.20
2018-12-15T09:20:25.450Z,1.20
2018-12-15T09:21:27.958Z,1.20
2018-12-15T09:22:30.461Z,1.20
2018-12-15T09:23:32.970Z,1.20
2018-12-15T09:24:35.509Z,1.20
2018-12-15T09:25:38.017Z,1.20
2018-12-15T09:26:40.529Z,1.30
2018-12-15T09:27:43.082Z,1.30
2018-12-15T09:28:45.644Z,1.30
2018-12-15T09:29:48.140Z,1.40
2018-12-15T09:30:50.697Z,1.40
2018-12-15T09:31:53.233Z,1.40
2018-12-15T09:32:55.782Z,1.40
2018-12-15T09:33:58.282Z,1.30
2018-12-15T09:35:00.801Z,1.30
2018-12-15T09:36:03.351Z,1.30
2018-12-15T09:37:05.877Z,1.30
2018-12-15T09:38:08.373Z,1.20
2018-12-15T09:39:10.874Z,1.30
2018-12-15T09:40:13.385Z,1.20
2018-12-15T09:41:15.882Z,1.30
2018-12-15T09:42:18.422Z,1.20
2018-12-15T09:43:20.934Z,1.20
2018-12-15T09:44:23.486Z,1.20
2018-12-15T09:45:26.041Z,1.20
2018-12-15T09:46:28.597Z,1.20
2018-12-15T09:47:31.133Z,1.20
2018-12-15T09:48:33.637Z,1.20
2018-12-15T09:49:36.152Z,1.30
2018-12-15T09:50:38.703Z,1.30
2018-12-15T09:51:41.205Z,1.20
2018-12-15T09:52:43.715Z,1.20
2018-12-15T09:53:46.225Z,1.20
2018-12-15T09:54:48.800Z,1.20
2018-12-15T09:55:51.341Z,1.20
2018-12-15T09:56:54.014Z,1.30
2018-12-15T09:57:56.566Z,1.30
2018-12-15T09:58:59.089Z,1.30
2018-12-15T10:00:01.632Z,1.40
2018-12-15T10:01:04.246Z,1.40
2018-12-15T10:02:06.830Z,1.40
2018-12-15T10:03:09.329Z,1.40
2018-12-15T10:04:11.880Z,1.40
2018-12-15T10:05:14.481Z,1.30
2018-12-15T10:06:16.998Z,1.30
2018-12-15T10:07:19.546Z,1.30
2018-12-15T10:08:22.057Z,1.30
2018-12-15T10:09:24.575Z,1.30
2018-12-15T10:10:27.104Z,1.40
2018-12-15T10:11:29.610Z,1.40
2018-12-15T10:12:32.151Z,1.50
2018-12-15T10:13:34.657Z,1.40
2018-12-15T10:14:37.194Z,1.40
2018-12-15T10:15:39.733Z,1.30
2018-12-15T10:16:42.284Z,1.30
2018-12-15T10:17:44.817Z,1.40
2018-12-15T10:18:47.317Z,1.30
2018-12-15T10:19:49.872Z,1.30
2018-12-15T10:20:52.381Z,1.30
2018-12-15T10:21:54.891Z,1.30
2018-12-15T10:22:57.397Z,1.20
2018-12-15T10:23:59.903Z,1.10
2018-12-15T10:25:02.502Z,1.10
2018-12-15T10:26:05.009Z,1.10
2018-12-15T10:27:07.513Z,1.10
2018-12-15T10:28:10.022Z,1.10
2018-12-15T10:29:14.490Z,1.10
2018-12-15T10:30:22.694Z,1.20
2018-12-15T10:31:30.862Z,1.20
2018-12-15T10:32:39.000Z,1.20
2018-12-15T10:33:41.586Z,1.20
2018-12-15T10:34:44.093Z,1.20
2018-12-15T10:35:46.635Z,1.20
2018-12-15T10:36:49.137Z,1.20
2018-12-15T10:37:51.649Z,1.20
2018-12-15T10:38:54.177Z,1.30
2018-12-15T10:39:56.684Z,1.30
2018-12-15T10:40:59.186Z,1.30
2018-12-15T10:42:01.693Z,1.30
2018-12-15T10:43:04.238Z,1.30
2018-12-15T10:44:06.742Z,1.30
2018-12-15T10:45:09.305Z,1.30
2018-12-15T10:46:11.861Z,1.30
2018-12-15T10:47:14.357Z,1.40
2018-12-15T10:48:16.896Z,1.50
2018-12-15T10:49:19.521Z,1.40
2018-12-15T10:50:22.025Z,1.40
2018-12-15T10:51:24.529Z,1.30
2018-12-15T10:52:27.080Z,1.30
2018-12-15T10:53:29.613Z,1.30
2018-12-15T10:54:32.122Z,1.20
2018-12-15T10:55:34.629Z,1.20
2018-12-15T10:56:37.143Z,1.30
2018-12-15T10:57:39.728Z,1.20
2018-12-15T10:58:42.229Z,1.30
2018-12-15T10:59:44.741Z,1.30
2018-12-15T11:00:52.882Z,1.40
2018-12-15T11:01:55.393Z,1.40
2018-12-15T11:02:57.954Z,1.50
2018-12-15T11:04:00.917Z,1.50
2018-12-15T11:05:04.404Z,1.60
2018-12-15T11:06:06.917Z,1.50
2018-12-15T11:07:09.429Z,1.60
2018-12-15T11:08:11.978Z,1.50
2018-12-15T11:09:14.481Z,1.50
2018-12-15T11:10:16.994Z,1.50
2018-12-15T11:11:19.553Z,1.50
2018-12-15T11:12:22.058Z,1.50
2018-12-15T11:13:24.607Z,1.50
2018-12-15T11:14:27.117Z,1.40
2018-12-15T11:15:29.629Z,1.40
2018-12-15T11:16:32.135Z,1.40
2018-12-15T11:17:34.644Z,1.30
2018-12-15T11:18:37.198Z,1.30
2018-12-15T11:19:39.714Z,1.30
2018-12-15T11:20:42.221Z,1.30
2018-12-15T11:21:45.014Z,1.30
2018-12-15T11:22:47.517Z,1.40
2018-12-15T11:23:50.030Z,1.40
2018-12-15T11:24:52.573Z,1.40
2018-12-15T11:25:55.086Z,1.40
2018-12-15T11:26:57.617Z,1.40
2018-12-15T11:28:00.151Z,1.40
2018-12-15T11:29:02.709Z,1.40
2018-12-15T11:30:05.646Z,1.40
2018-12-15T11:31:08.145Z,1.40
2018-12-15T11:32:10.649Z,1.30
2018-12-15T11:33:13.160Z,1.30
2018-12-15T11:34:15.696Z,1.30
2018-12-15T11:35:18.252Z,1.30
2018-12-15T11:36:20.781Z,1.30
2018-12-15T11:37:23.285Z,1.30
2018-12-15T11:38:25.797Z,1.30
2018-12-15T11:39:28.305Z,1.40
2018-12-15T11:40:30.853Z,1.40
2018-12-15T11:41:33.366Z,1.30
2018-12-15T11:42:35.926Z,1.30
2018-12-15T11:43:38.445Z,1.20
2018-12-15T11:44:40.973Z,1.20
2018-12-15T11:45:43.516Z,1.20
2018-12-15T11:46:46.073Z,1.20
2018-12-15T11:47:48.586Z,1.20
2018-12-15T11:48:51.125Z,1.10
2018-12-15T11:49:53.687Z,1.20
2018-12-15T11:50:56.184Z,1.20
2018-12-15T11:51:58.721Z,1.10
2018-12-15T11:53:01.410Z,1.20
2018-12-15T11:54:04.044Z,1.20
2018-12-15T11:55:06.607Z,1.20
2018-12-15T11:56:09.114Z,1.20
2018-12-15T11:57:11.674Z,1.20
2018-12-15T11:58:14.181Z,1.20
2018-12-15T11:59:16.722Z,1.30
2018-12-15T12:00:19.230Z,1.20
2018-12-15T12:01:21.737Z,1.30
2018-12-15T12:02:24.263Z,1.30
2018-12-15T12:03:26.832Z,1.30
2018-12-15T12:04:29.495Z,1.40
2018-12-15T12:05:32.113Z,1.30
2018-12-15T12:06:34.664Z,1.30
2018-12-15T12:07:37.197Z,1.30
2018-12-15T12:08:39.741Z,1.30
2018-12-15T12:09:42.277Z,1.40
2018-12-15T12:10:44.789Z,1.40
2018-12-15T12:11:47.291Z,1.30
2018-12-15T12:12:49.806Z,1.30
2018-12-15T12:13:52.314Z,1.30
2018-12-15T12:14:54.861Z,1.30
2018-12-15T12:15:57.365Z,1.30
2018-12-15T12:16:59.862Z,1.30
2018-12-15T12:18:02.401Z,1.20
2018-12-15T12:19:04.901Z,1.20
2018-12-15T12:20:07.847Z,1.30
2018-12-15T12:21:10.349Z,1.30
2018-12-15T12:22:12.944Z,1.30
2018-12-15T12:23:15.453Z,1.30
2018-12-15T12:24:17.952Z,1.30
2018-12-15T12:25:20.533Z,1.30
2018-12-15T12:26:23.078Z,1.30
2018-12-15T12:27:25.586Z,1.30
2018-12-15T12:28:28.134Z,1.30
2018-12-15T12:29:30.647Z,1.30
2018-12-15T12:30:33.162Z,1.30
2018-12-15T12:31:35.667Z,1.30
2018-12-15T12:32:38.177Z,1.30
2018-12-15T12:33:40.721Z,1.30
2018-12-15T12:34:43.234Z,1.30
2018-12-15T12:35:45.749Z,1.40
2018-12-15T12:36:48.258Z,1.40
2018-12-15T12:37:50.765Z,1.40
2018-12-15T12:38:53.317Z,1.40
2018-12-15T12:39:55.833Z,1.40
2018-12-15T12:40:58.338Z,1.40
2018-12-15T12:42:00.846Z,1.40
2018-12-15T12:43:03.356Z,1.40
2018-12-15T12:44:05.904Z,1.40
2018-12-15T12:45:08.685Z,1.50
2018-12-15T12:46:11.251Z,1.50
2018-12-15T12:47:13.788Z,1.50
2018-12-15T12:48:16.298Z,1.60
2018-12-15T12:49:18.809Z,1.60
2018-12-15T12:50:21.369Z,1.50
2018-12-15T12:51:23.873Z,1.40
2018-12-15T12:52:26.417Z,1.50
2018-12-15T12:53:28.918Z,1.50
2018-12-15T12:54:31.421Z,1.50
2018-12-15T12:55:33.929Z,1.50
2018-12-15T12:56:36.429Z,1.50
2018-12-15T12:57:38.973Z,1.50
2018-12-15T12:58:41.485Z,1.50
2018-12-15T12:59:43.993Z,1.50
2018-12-15T13:00:46.493Z,1.50
2018-12-15T13:01:49.057Z,1.50
2018-12-15T13:02:51.737Z,1.50
2018-12-15T13:03:54.249Z,1.50
2018-12-15T13:04:56.765Z,1.40
2018-12-15T13:05:59.274Z,1.30
2018-12-15T13:07:01.782Z,1.30
2018-12-15T13:08:04.370Z,1.30
2018-12-15T13:09:06.933Z,1.30
2018-12-15T13:10:09.501Z,1.20
2018-12-15T13:11:12.041Z,1.20
2018-12-15T13:12:14.597Z,1.30
2018-12-15T13:13:17.142Z,1.30
2018-12-15T13:14:19.752Z,1.30
2018-12-15T13:15:22.298Z,1.30
2018-12-15T13:16:24.853Z,1.40
2018-12-15T13:17:27.442Z,1.40
2018-12-15T13:18:29.949Z,1.40
2018-12-15T13:19:32.453Z,1.50
2018-12-15T13:20:35.014Z,1.40
2018-12-15T13:21:37.529Z,1.30
2018-12-15T13:22:40.068Z,1.30
2018-12-15T13:23:43.077Z,1.30
2018-12-15T13:24:45.577Z,1.20
2018-12-15T13:25:48.084Z,1.20
2018-12-15T13:26:50.598Z,1.30
2018-12-15T13:27:53.139Z,1.30
2018-12-15T13:28:55.644Z,1.30
2018-12-15T13:29:58.254Z,1.30
2018-12-15T13:31:00.800Z,1.40
2018-12-15T13:32:03.418Z,1.30
2018-12-15T13:33:13.805Z,1.30
2018-12-15T13:34:16.395Z,1.30
2018-12-15T13:35:18.994Z,1.30
2018-12-15T13:36:21.554Z,1.20
2018-12-15T13:37:24.066Z,1.30
2018-12-15T13:38:26.561Z,1.30
2018-12-15T13:39:29.211Z,1.30
2018-12-15T13:40:31.779Z,1.30
2018-12-15T13:41:34.341Z,1.40
2018-12-15T13:42:36.841Z,1.40
2018-12-15T13:43:39.397Z,1.30
2018-12-15T13:44:41.900Z,1.30
2018-12-15T13:45:44.442Z,1.30
2018-12-15T13:46:46.989Z,1.30
2018-12-15T13:47:49.509Z,1.20
2018-12-15T13:48:52.061Z,1.20
2018-12-15T13:49:54.574Z,1.10
2018-12-15T13:50:57.077Z,1.10
2018-12-15T13:51:59.630Z,1.10
2018-12-15T13:53:02.137Z,1.10
2018-12-15T13:54:04.657Z,1.10
2018-12-15T13:55:07.272Z,1.10
2018-12-15T13:56:09.833Z,1.00
2018-12-15T13:57:12.397Z,1.00